Ride Results

Homewood Memorial Ride (26-04-2014)
Ride distance: 120.0 km Elevator

Outcomes - Homewood Memorial Ride (26-04-2014)
Division No. of Entries Retired / DNE Completed Withdrawn Ineligible V/O Percentage Completed
HW 13 9 0 1 - 3 69.23%
MW 18 12 4 - - 2 88.89%
LW 8 5 0 1 - 2 62.50%
JN 3 3 0 - - - 100.00%
Totals 42 29 4 2 - 7 78.57%
Results - Homewood Memorial Ride (26-04-2014)
No. Rider Horse Place Time Leg Speeds Total
Km/Hr
H/R bpm
Heavyweight
26 Nigel Colefax Inshallah Echo's Flight Retired/DNE L2 7:02:00 11.2, 11.4 11.37 48, 42, 40 (Avg:41)
1 Steve Broadbent Glendhu Moonshine Retired/DNE L2 7:06:00 11.9, 10.6 11.27 30, 44, 52 (Avg:48)
23 Phil Coleman Rainbows Reach Snowfyre Retired/DNE L2 7:11:00 11.7, 10.5 11.14 40, 48, 51 (Avg:49)
15 Sue Warren Razorback Flash Retired/DNE L2 7:12:00 11.7, 10.5 11.11 38, 42, 46 (Avg:44)
29 Gary Pevy Just Cruzin Retired/DNE L2 7:18:00 11.2, 10.6 10.96 39, 46, 54 (Avg:50)
31 Janette Nelson Hampton Park Jack Retired/DNE L2 8:11:00 10.8, 8.9 9.78 42, 44, 51 (Avg:47)
47 Michael Boland Rosebrae Magic Retired/DNE L2 8:14:00 10.2, 9.2 9.72 32, 36, 50 (Avg:43)
5 Keith Sumpner Fonda Retired/DNE L2 8:15:00 10.2, 9.2 9.70 38, 47, 56 (Avg:51)
13 Craig Smith Hill-Fry Splash of Gold Retired/DNE L2 9:01:00 10.8, 7.5 8.87 40, 44, 53 (Avg:48)
11 Allan Caslick A'Landell Soul Withdrawn L4 0:00:00 - - 34, 40, 45, 52, 38 (Avg:43)
22 Jacob Hegarty Jazz Lame L1 0:00:00 10.5 - 38, 47, 52 (Avg:49)
3 Dieter Schuelein Shiraz Lame L1 0:00:00 10.8 - 39, 50 (Avg:50)
16 Tony Warren Warren Park Allira Lame L1 0:00:00 11.7 - 42, 49, 0 (Avg:24)
Middleweight
18 Darryl King Splitters Creek Red Vogue 1 (BC) 6:59:00 17.2, 19.6, 15.5, 14.8 17.18 36, 45, 49, 50, 60 (Avg:51)
28 Debbie Pevy Burren-Dah Walter 1 6:59:00 17.2, 19.6, 15.5, 14.8 17.18 36, 44, 48, 48, 52 (Avg:48)
12 Sonya Ruprecht Alex-Ville God Be Gift 3 8:37:00 14.9, 14.7, 13.9, 11.1 13.93 31, 40, 43, 48, 50 (Avg:45)
2 Peter Kelly Ramalea Laila 4 9:44:00 12.9, 12.6, 13.0, 10.1 12.33 38, 40, 42, 46, 44 (Avg:43)
30 Elizabeth Moir Kenya s Gold Retired/DNE L3 6:58:00 16.5, 15.8, 9.8 14.35 26, 35, 50, 54 (Avg:46)
10 Sharon Foster Sharabel Maleka Retired/DNE L3 7:53:00 11.5, 12.8, 15.1 12.68 38, 44, 48, 58 (Avg:50)
25 Karen Anderson Malleegrove Samsara Retired/DNE L2 4:21:00 17.2, 19.6 18.39 38, 44, 48 (Avg:46)
42 Gil Stevenson Thalaba Touch of Gold Retired/DNE L2 4:55:00 16.9, 15.6 16.27 38, 43, 42 (Avg:42)
35 Jennifer Rogers Churinga Lite Mi Fire Retired/DNE L2 6:10:00 12.9, 12.9 12.97 38, 42, 53 (Avg:47)
7 Christopher Schofield Bradali Ice N Rain Retired/DNE L2 6:34:00 11.5, 12.8 12.18 34, 38, 50 (Avg:44)
34 Lyall Cameron Hazeldean Halim Retired/DNE L2 6:49:00 11.9, 11.5 11.74 40, 52, 58 (Avg:55)
20 Susan Pritchard Khalidah Tasneem Retired/DNE L2 6:58:00 11.6, 11.3 11.48 36, 39, 42 (Avg:40)
32 Terry Wood Tallawarra Miracle Retired/DNE L2 7:10:00 13.4, 9.5 11.16 39, 48, 58 (Avg:53)
14 Tayla Warren Warren Park O.B. One Retired/DNE L2 7:12:00 11.7, 10.5 11.11 32, 40, 43 (Avg:41)
50 Meg Garzaniti Desert Dullers Aezure Retired/DNE L2 7:29:00 10.8, 10.5 10.69 36, 40, 46 (Avg:43)
48 Margaret Boland Rosebrae Amber Retired/DNE L2 8:14:00 10.2, 9.2 9.72 36, 48, 48 (Avg:48)
19 Brad Dillon Banfield Khamsin Lame L4 0:00:00 16.9, 15.6, 14.4, 11.7 - 39, 44, 48, 57, 56 (Avg:51)
43 Tracey Morley Antaarez Heart Rate L2 0:00:00 11.9, 9.1 - 34, 44, 72 (Avg:58)
Lightweight
8 Anne Hills Evening Star Retired/DNE L2 6:14:00 12.9, 12.6 12.83 38, 36, 43 (Avg:39)
24 Ros Ryan Cloudburst Retired/DNE L2 7:11:00 11.7, 10.5 11.14 36, 44, 50 (Avg:47)
17 Codey Bergsma Monarch Lodge Galaxy Retired/DNE L2 7:29:00 10.8, 10.5 10.69 34, 31, 50 (Avg:40)
69 Leisa Courtman Ejen Park Summer Tango Retired/DNE L2 8:11:00 10.8, 8.9 9.78 41, 48, 54 (Avg:51)
21 Alison Clark Pumba Retired/DNE L2 8:50:00 10.5, 7.9 9.06 40, 44, 48 (Avg:46)
4 Renee Schneider Badia Just Rosie Metabolics L4 0:00:00 17.2, 15.6, 14.1, 11.7 - 40, 46, 45, 45, 56 (Avg:48)
49 Melinda Macfarlane Lyndon Withdrawn P/R 0:00:00 - - 42
33 Shannen Thorsby A'Landell Dustin Lame P/R 0:00:00 - - 44, 54 (Avg:54)
Junior
9 Isabel Foster Sharabel Kalarney Retired/DNE L3 7:53:00 11.5, 12.8, 15.1 12.68 36, 42, 50, 46 (Avg:46)
27 Tomeika Bond-Pevy Regal Buddie Retired/DNE L2 6:10:00 12.9, 12.9 12.97 48, 45, 58 (Avg:51)
6 Modena Schofield-Foster Sharabel Akaysha Retired/DNE L2 6:34:00 11.5, 12.8 12.18 31, 38, 45 (Avg:41)